sensor_id;sensor_type;location;lat;lon;timestamp;temperature;humidity
69328;DHT22;56472;52.114;5.492;2023-04-10T00:00:01;13.90;54.40
69328;DHT22;56472;52.114;5.492;2023-04-10T00:02:30;13.90;54.50
69328;DHT22;56472;52.114;5.492;2023-04-10T00:04:58;13.90;54.40
69328;DHT22;56472;52.114;5.492;2023-04-10T00:07:25;13.80;54.50
69328;DHT22;56472;52.114;5.492;2023-04-10T00:09:53;13.80;54.50
69328;DHT22;56472;52.114;5.492;2023-04-10T00:12:20;13.80;54.70
69328;DHT22;56472;52.114;5.492;2023-04-10T00:14:47;13.80;54.90
69328;DHT22;56472;52.114;5.492;2023-04-10T00:17:14;13.70;55.20
69328;DHT22;56472;52.114;5.492;2023-04-10T00:19:41;13.70;55.20
69328;DHT22;56472;52.114;5.492;2023-04-10T00:22:07;13.70;55.30
69328;DHT22;56472;52.114;5.492;2023-04-10T00:24:34;13.60;55.30
69328;DHT22;56472;52.114;5.492;2023-04-10T00:27:01;13.60;55.30
69328;DHT22;56472;52.114;5.492;2023-04-10T00:29:28;13.60;55.60
69328;DHT22;56472;52.114;5.492;2023-04-10T00:31:55;13.50;55.80
69328;DHT22;56472;52.114;5.492;2023-04-10T00:34:22;13.50;55.90
69328;DHT22;56472;52.114;5.492;2023-04-10T00:36:49;13.50;55.90
69328;DHT22;56472;52.114;5.492;2023-04-10T00:39:16;13.50;56.30
69328;DHT22;56472;52.114;5.492;2023-04-10T00:41:43;13.50;56.40
69328;DHT22;56472;52.114;5.492;2023-04-10T00:44:10;13.50;56.40
69328;DHT22;56472;52.114;5.492;2023-04-10T00:46:39;13.40;56.50
69328;DHT22;56472;52.114;5.492;2023-04-10T00:49:06;13.40;56.70
69328;DHT22;56472;52.114;5.492;2023-04-10T00:51:38;13.40;56.90
69328;DHT22;56472;52.114;5.492;2023-04-10T00:54:05;13.40;56.90
69328;DHT22;56472;52.114;5.492;2023-04-10T00:56:32;13.40;57.20
69328;DHT22;56472;52.114;5.492;2023-04-10T00:58:59;13.40;57.20
69328;DHT22;56472;52.114;5.492;2023-04-10T01:01:30;13.40;57.20
69328;DHT22;56472;52.114;5.492;2023-04-10T01:03:57;13.40;57.10
69328;DHT22;56472;52.114;5.492;2023-04-10T01:15:12;13.30;57.20
69328;DHT22;56472;52.114;5.492;2023-04-10T01:20:24;13.20;57.30
69328;DHT22;56472;52.114;5.492;2023-04-10T01:26:41;13.20;57.50
69328;DHT22;56472;52.114;5.492;2023-04-10T01:29:06;13.20;57.70
69328;DHT22;56472;52.114;5.492;2023-04-10T01:31:53;13.20;57.90
69328;DHT22;56472;52.114;5.492;2023-04-10T01:34:48;13.10;58.00
69328;DHT22;56472;52.114;5.492;2023-04-10T01:37:24;13.10;58.00
69328;DHT22;56472;52.114;5.492;2023-04-10T01:40:03;13.10;57.90
69328;DHT22;56472;52.114;5.492;2023-04-10T01:42:36;13.10;58.00
69328;DHT22;56472;52.114;5.492;2023-04-10T01:45:06;13.00;58.20
69328;DHT22;56472;52.114;5.492;2023-04-10T01:47:35;13.00;58.10
69328;DHT22;56472;52.114;5.492;2023-04-10T01:50:03;13.10;58.30
69328;DHT22;56472;52.114;5.492;2023-04-10T01:52:32;13.00;58.50
69328;DHT22;56472;52.114;5.492;2023-04-10T01:55:21;13.10;58.60
69328;DHT22;56472;52.114;5.492;2023-04-10T01:57:53;13.00;58.20
69328;DHT22;56472;52.114;5.492;2023-04-10T02:00:22;13.00;58.50
69328;DHT22;56472;52.114;5.492;2023-04-10T02:02:50;13.00;58.60
69328;DHT22;56472;52.114;5.492;2023-04-10T02:05:18;13.00;58.50
69328;DHT22;56472;52.114;5.492;2023-04-10T02:07:53;13.00;58.50
69328;DHT22;56472;52.114;5.492;2023-04-10T02:10:27;13.00;58.60
69328;DHT22;56472;52.114;5.492;2023-04-10T02:13:02;12.90;58.70
69328;DHT22;56472;52.114;5.492;2023-04-10T02:15:31;12.90;58.80
69328;DHT22;56472;52.114;5.492;2023-04-10T02:18:01;12.90;58.90
69328;DHT22;56472;52.114;5.492;2023-04-10T02:20:30;12.90;58.80
69328;DHT22;56472;52.114;5.492;2023-04-10T02:22:58;12.90;59.20
69328;DHT22;56472;52.114;5.492;2023-04-10T02:25:33;12.80;59.10
69328;DHT22;56472;52.114;5.492;2023-04-10T02:28:04;12.80;59.30
69328;DHT22;56472;52.114;5.492;2023-04-10T02:30:31;12.80;59.40
69328;DHT22;56472;52.114;5.492;2023-04-10T02:32:59;12.80;59.40
69328;DHT22;56472;52.114;5.492;2023-04-10T02:35:29;12.80;59.60
69328;DHT22;56472;52.114;5.492;2023-04-10T02:37:56;12.80;59.60
69328;DHT22;56472;52.114;5.492;2023-04-10T02:40:23;12.80;59.50
69328;DHT22;56472;52.114;5.492;2023-04-10T02:42:56;12.80;59.50
69328;DHT22;56472;52.114;5.492;2023-04-10T02:45:23;12.80;59.70
69328;DHT22;56472;52.114;5.492;2023-04-10T02:47:50;12.80;59.70
69328;DHT22;56472;52.114;5.492;2023-04-10T02:50:18;12.80;59.70
69328;DHT22;56472;52.114;5.492;2023-04-10T02:52:45;12.80;59.60
69328;DHT22;56472;52.114;5.492;2023-04-10T02:55:13;12.80;59.70
69328;DHT22;56472;52.114;5.492;2023-04-10T02:57:40;12.80;59.80
69328;DHT22;56472;52.114;5.492;2023-04-10T03:00:09;12.70;59.70
69328;DHT22;56472;52.114;5.492;2023-04-10T03:03:08;12.70;59.60
69328;DHT22;56472;52.114;5.492;2023-04-10T03:05:43;12.70;59.70
69328;DHT22;56472;52.114;5.492;2023-04-10T03:08:17;12.70;59.60
69328;DHT22;56472;52.114;5.492;2023-04-10T03:10:45;12.60;59.60
69328;DHT22;56472;52.114;5.492;2023-04-10T03:13:14;12.60;59.60
69328;DHT22;56472;52.114;5.492;2023-04-10T03:15:41;12.60;59.90
69328;DHT22;56472;52.114;5.492;2023-04-10T03:18:08;12.60;60.00
69328;DHT22;56472;52.114;5.492;2023-04-10T03:20:37;12.60;59.90
69328;DHT22;56472;52.114;5.492;2023-04-10T03:23:06;12.60;60.00
69328;DHT22;56472;52.114;5.492;2023-04-10T03:25:33;12.60;60.20
69328;DHT22;56472;52.114;5.492;2023-04-10T03:28:02;12.60;60.10
69328;DHT22;56472;52.114;5.492;2023-04-10T03:30:30;12.60;60.20
69328;DHT22;56472;52.114;5.492;2023-04-10T03:32:57;12.60;60.40
69328;DHT22;56472;52.114;5.492;2023-04-10T03:35:23;12.60;60.40
69328;DHT22;56472;52.114;5.492;2023-04-10T03:37:50;12.50;60.40
69328;DHT22;56472;52.114;5.492;2023-04-10T03:40:17;12.50;60.50
69328;DHT22;56472;52.114;5.492;2023-04-10T03:42:44;12.50;60.30
69328;DHT22;56472;52.114;5.492;2023-04-10T03:45:12;12.50;60.40
69328;DHT22;56472;52.114;5.492;2023-04-10T03:47:39;12.50;60.40
69328;DHT22;56472;52.114;5.492;2023-04-10T03:50:08;12.50;60.40
69328;DHT22;56472;52.114;5.492;2023-04-10T03:52:44;12.50;60.50
69328;DHT22;56472;52.114;5.492;2023-04-10T03:55:15;12.50;60.60
69328;DHT22;56472;52.114;5.492;2023-04-10T03:57:46;12.50;60.60
69328;DHT22;56472;52.114;5.492;2023-04-10T04:00:16;12.40;60.50
69328;DHT22;56472;52.114;5.492;2023-04-10T04:02:47;12.40;60.70
69328;DHT22;56472;52.114;5.492;2023-04-10T04:05:39;12.40;60.70
69328;DHT22;56472;52.114;5.492;2023-04-10T04:08:25;12.40;60.70
69328;DHT22;56472;52.114;5.492;2023-04-10T04:11:24;12.40;60.90
69328;DHT22;56472;52.114;5.492;2023-04-10T04:13:56;12.30;61.00
69328;DHT22;56472;52.114;5.492;2023-04-10T04:16:48;12.30;61.10
69328;DHT22;56472;52.114;5.492;2023-04-10T04:19:41;12.30;61.10
69328;DHT22;56472;52.114;5.492;2023-04-10T04:22:21;12.30;61.20
69328;DHT22;56472;52.114;5.492;2023-04-10T04:25:07;12.20;61.30
69328;DHT22;56472;52.114;5.492;2023-04-10T04:27:51;12.20;61.50
69328;DHT22;56472;52.114;5.492;2023-04-10T04:30:37;12.20;61.70
69328;DHT22;56472;52.114;5.492;2023-04-10T04:33:10;12.20;61.70
69328;DHT22;56472;52.114;5.492;2023-04-10T04:35:56;12.10;61.60
69328;DHT22;56472;52.114;5.492;2023-04-10T04:38:35;12.10;61.90
69328;DHT22;56472;52.114;5.492;2023-04-10T04:41:11;12.00;61.90
69328;DHT22;56472;52.114;5.492;2023-04-10T04:44:10;12.00;62.10
69328;DHT22;56472;52.114;5.492;2023-04-10T04:46:49;12.00;62.30
69328;DHT22;56472;52.114;5.492;2023-04-10T04:49:16;12.00;62.40
69328;DHT22;56472;52.114;5.492;2023-04-10T04:51:50;11.90;62.50
69328;DHT22;56472;52.114;5.492;2023-04-10T04:54:39;11.90;62.60
69328;DHT22;56472;52.114;5.492;2023-04-10T04:57:14;11.90;62.70
69328;DHT22;56472;52.114;5.492;2023-04-10T05:00:05;11.90;62.70
69328;DHT22;56472;52.114;5.492;2023-04-10T05:02:50;11.80;62.70
69328;DHT22;56472;52.114;5.492;2023-04-10T05:05:35;11.90;63.00
69328;DHT22;56472;52.114;5.492;2023-04-10T05:08:38;11.80;63.00
69328;DHT22;56472;52.114;5.492;2023-04-10T05:11:25;11.80;63.10
69328;DHT22;56472;52.114;5.492;2023-04-10T05:14:18;11.80;63.20
69328;DHT22;56472;52.114;5.492;2023-04-10T05:17:05;11.80;63.10
69328;DHT22;56472;52.114;5.492;2023-04-10T05:19:51;11.80;63.20
69328;DHT22;56472;52.114;5.492;2023-04-10T05:22:57;11.80;63.40
69328;DHT22;56472;52.114;5.492;2023-04-10T05:25:32;11.80;63.50
69328;DHT22;56472;52.114;5.492;2023-04-10T05:28:12;11.80;63.60
69328;DHT22;56472;52.114;5.492;2023-04-10T05:31:11;11.80;63.60
69328;DHT22;56472;52.114;5.492;2023-04-10T05:34:07;11.80;63.80
69328;DHT22;56472;52.114;5.492;2023-04-10T05:36:47;11.80;63.80
69328;DHT22;56472;52.114;5.492;2023-04-10T05:39:21;11.80;64.00
69328;DHT22;56472;52.114;5.492;2023-04-10T05:42:06;11.80;63.90
69328;DHT22;56472;52.114;5.492;2023-04-10T05:44:46;11.90;64.10
69328;DHT22;56472;52.114;5.492;2023-04-10T05:47:45;11.90;64.00
69328;DHT22;56472;52.114;5.492;2023-04-10T05:50:36;11.90;64.10
69328;DHT22;56472;52.114;5.492;2023-04-10T05:53:30;11.90;64.10
69328;DHT22;56472;52.114;5.492;2023-04-10T05:56:22;12.00;64.10
69328;DHT22;56472;52.114;5.492;2023-04-10T05:59:08;12.00;64.10
69328;DHT22;56472;52.114;5.492;2023-04-10T06:01:58;12.00;64.30
69328;DHT22;56472;52.114;5.492;2023-04-10T06:04:25;12.00;64.10
69328;DHT22;56472;52.114;5.492;2023-04-10T06:06:55;12.10;64.10
69328;DHT22;56472;52.114;5.492;2023-04-10T06:09:22;12.10;64.50
69328;DHT22;56472;52.114;5.492;2023-04-10T06:11:49;12.20;64.30
69328;DHT22;56472;52.114;5.492;2023-04-10T06:14:19;12.20;64.20
69328;DHT22;56472;52.114;5.492;2023-04-10T06:16:46;12.30;64.20
69328;DHT22;56472;52.114;5.492;2023-04-10T06:19:14;12.30;63.90
69328;DHT22;56472;52.114;5.492;2023-04-10T06:21:41;12.30;63.80
69328;DHT22;56472;52.114;5.492;2023-04-10T06:24:08;12.40;63.90
69328;DHT22;56472;52.114;5.492;2023-04-10T06:26:37;12.40;63.30
69328;DHT22;56472;52.114;5.492;2023-04-10T06:29:05;12.40;63.20
69328;DHT22;56472;52.114;5.492;2023-04-10T06:31:32;12.50;63.40
69328;DHT22;56472;52.114;5.492;2023-04-10T06:34:00;12.50;63.60
69328;DHT22;56472;52.114;5.492;2023-04-10T06:36:27;12.60;63.80
69328;DHT22;56472;52.114;5.492;2023-04-10T06:39:05;12.60;63.80
69328;DHT22;56472;52.114;5.492;2023-04-10T06:41:32;12.60;63.40
69328;DHT22;56472;52.114;5.492;2023-04-10T06:44:18;12.70;63.30
69328;DHT22;56472;52.114;5.492;2023-04-10T06:46:44;12.70;63.10
69328;DHT22;56472;52.114;5.492;2023-04-10T06:49:12;12.80;63.10
69328;DHT22;56472;52.114;5.492;2023-04-10T06:51:38;12.80;62.90
69328;DHT22;56472;52.114;5.492;2023-04-10T06:54:05;12.90;63.00
69328;DHT22;56472;52.114;5.492;2023-04-10T06:56:32;12.90;63.20
69328;DHT22;56472;52.114;5.492;2023-04-10T06:58:59;12.90;62.90
69328;DHT22;56472;52.114;5.492;2023-04-10T07:01:26;13.00;62.70
69328;DHT22;56472;52.114;5.492;2023-04-10T07:03:56;13.00;62.40
69328;DHT22;56472;52.114;5.492;2023-04-10T07:06:23;13.10;62.20
69328;DHT22;56472;52.114;5.492;2023-04-10T07:08:53;13.10;62.20
69328;DHT22;56472;52.114;5.492;2023-04-10T07:11:20;13.20;62.20
69328;DHT22;56472;52.114;5.492;2023-04-10T07:13:47;13.20;62.60
69328;DHT22;56472;52.114;5.492;2023-04-10T07:16:15;13.30;62.60
69328;DHT22;56472;52.114;5.492;2023-04-10T07:18:42;13.30;62.50
69328;DHT22;56472;52.114;5.492;2023-04-10T07:21:11;13.40;61.90
69328;DHT22;56472;52.114;5.492;2023-04-10T07:23:38;13.40;62.30
69328;DHT22;56472;52.114;5.492;2023-04-10T07:26:06;13.50;62.00
69328;DHT22;56472;52.114;5.492;2023-04-10T07:28:33;13.50;62.00
69328;DHT22;56472;52.114;5.492;2023-04-10T07:31:00;13.70;61.80
69328;DHT22;56472;52.114;5.492;2023-04-10T07:33:27;13.70;61.10
69328;DHT22;56472;52.114;5.492;2023-04-10T07:35:54;13.80;61.00
69328;DHT22;56472;52.114;5.492;2023-04-10T07:38:20;13.80;60.70
69328;DHT22;56472;52.114;5.492;2023-04-10T07:40:55;13.90;61.00
69328;DHT22;56472;52.114;5.492;2023-04-10T07:43:22;14.00;61.00
69328;DHT22;56472;52.114;5.492;2023-04-10T07:45:49;14.10;60.80
69328;DHT22;56472;52.114;5.492;2023-04-10T07:48:16;14.10;60.80
69328;DHT22;56472;52.114;5.492;2023-04-10T07:50:43;14.20;60.80
69328;DHT22;56472;52.114;5.492;2023-04-10T07:53:10;14.30;60.50
69328;DHT22;56472;52.114;5.492;2023-04-10T07:55:42;14.40;61.00
69328;DHT22;56472;52.114;5.492;2023-04-10T07:58:09;14.50;61.20
69328;DHT22;56472;52.114;5.492;2023-04-10T08:00:36;14.60;60.90
69328;DHT22;56472;52.114;5.492;2023-04-10T08:03:04;14.80;60.30
69328;DHT22;56472;52.114;5.492;2023-04-10T08:05:32;14.90;59.80
69328;DHT22;56472;52.114;5.492;2023-04-10T08:07:59;15.00;59.20
69328;DHT22;56472;52.114;5.492;2023-04-10T08:10:26;15.10;57.50
69328;DHT22;56472;52.114;5.492;2023-04-10T08:12:53;15.10;56.60
69328;DHT22;56472;52.114;5.492;2023-04-10T08:15:20;15.20;56.90
69328;DHT22;56472;52.114;5.492;2023-04-10T08:17:47;15.20;56.20
69328;DHT22;56472;52.114;5.492;2023-04-10T08:20:14;15.20;55.40
69328;DHT22;56472;52.114;5.492;2023-04-10T08:22:41;15.20;54.90
69328;DHT22;56472;52.114;5.492;2023-04-10T08:25:08;15.20;55.60
69328;DHT22;56472;52.114;5.492;2023-04-10T08:27:36;15.20;55.80
69328;DHT22;56472;52.114;5.492;2023-04-10T08:30:03;15.30;55.40
69328;DHT22;56472;52.114;5.492;2023-04-10T08:32:30;15.30;55.10
69328;DHT22;56472;52.114;5.492;2023-04-10T08:34:57;15.30;55.00
69328;DHT22;56472;52.114;5.492;2023-04-10T08:37:25;15.40;54.80
69328;DHT22;56472;52.114;5.492;2023-04-10T08:39:52;15.40;55.00
69328;DHT22;56472;52.114;5.492;2023-04-10T08:42:19;15.50;54.70
69328;DHT22;56472;52.114;5.492;2023-04-10T08:44:48;15.50;55.00
69328;DHT22;56472;52.114;5.492;2023-04-10T08:47:19;15.50;54.90
69328;DHT22;56472;52.114;5.492;2023-04-10T08:49:59;15.60;54.80
69328;DHT22;56472;52.114;5.492;2023-04-10T08:52:29;15.60;54.80
69328;DHT22;56472;52.114;5.492;2023-04-10T08:54:59;15.70;54.30
69328;DHT22;56472;52.114;5.492;2023-04-10T08:57:28;15.70;54.40
69328;DHT22;56472;52.114;5.492;2023-04-10T08:59:57;15.70;53.90
69328;DHT22;56472;52.114;5.492;2023-04-10T09:02:27;15.70;54.00
69328;DHT22;56472;52.114;5.492;2023-04-10T09:04:55;15.70;54.10
69328;DHT22;56472;52.114;5.492;2023-04-10T09:07:25;15.70;54.20
69328;DHT22;56472;52.114;5.492;2023-04-10T09:09:52;15.70;54.50
69328;DHT22;56472;52.114;5.492;2023-04-10T09:12:19;15.70;55.00
69328;DHT22;56472;52.114;5.492;2023-04-10T09:14:46;15.80;55.20
69328;DHT22;56472;52.114;5.492;2023-04-10T09:17:23;15.80;55.60
69328;DHT22;56472;52.114;5.492;2023-04-10T09:19:52;15.80;55.00
69328;DHT22;56472;52.114;5.492;2023-04-10T09:22:30;15.80;54.80
69328;DHT22;56472;52.114;5.492;2023-04-10T09:25:02;15.80;54.90
69328;DHT22;56472;52.114;5.492;2023-04-10T09:27:34;15.90;54.60
69328;DHT22;56472;52.114;5.492;2023-04-10T09:30:02;15.80;54.60
69328;DHT22;56472;52.114;5.492;2023-04-10T09:32:42;15.80;53.90
69328;DHT22;56472;52.114;5.492;2023-04-10T09:35:11;15.80;54.30
69328;DHT22;56472;52.114;5.492;2023-04-10T09:37:40;15.80;54.70
69328;DHT22;56472;52.114;5.492;2023-04-10T09:40:22;15.80;53.50
69328;DHT22;56472;52.114;5.492;2023-04-10T09:42:50;15.80;54.10
69328;DHT22;56472;52.114;5.492;2023-04-10T09:45:17;15.80;53.70
69328;DHT22;56472;52.114;5.492;2023-04-10T09:48:06;15.80;53.60
69328;DHT22;56472;52.114;5.492;2023-04-10T09:50:37;15.80;53.90
69328;DHT22;56472;52.114;5.492;2023-04-10T09:53:07;15.80;54.30
69328;DHT22;56472;52.114;5.492;2023-04-10T09:55:34;15.90;54.00
69328;DHT22;56472;52.114;5.492;2023-04-10T09:58:06;15.90;53.90
69328;DHT22;56472;52.114;5.492;2023-04-10T10:00:44;15.90;54.30
69328;DHT22;56472;52.114;5.492;2023-04-10T10:03:14;15.90;54.50
69328;DHT22;56472;52.114;5.492;2023-04-10T10:05:43;16.00;54.00
69328;DHT22;56472;52.114;5.492;2023-04-10T10:08:12;16.10;53.80
69328;DHT22;56472;52.114;5.492;2023-04-10T10:10:44;16.10;54.30
69328;DHT22;56472;52.114;5.492;2023-04-10T10:13:27;16.10;53.50
69328;DHT22;56472;52.114;5.492;2023-04-10T10:19:04;16.20;54.50
69328;DHT22;56472;52.114;5.492;2023-04-10T10:21:32;16.20;53.60
69328;DHT22;56472;52.114;5.492;2023-04-10T10:24:01;16.30;53.80
69328;DHT22;56472;52.114;5.492;2023-04-10T10:26:31;16.30;55.00
69328;DHT22;56472;52.114;5.492;2023-04-10T10:29:06;16.40;54.40
69328;DHT22;56472;52.114;5.492;2023-04-10T10:31:37;16.40;53.80
69328;DHT22;56472;52.114;5.492;2023-04-10T10:34:05;16.50;54.00
69328;DHT22;56472;52.114;5.492;2023-04-10T10:36:36;16.60;53.90
69328;DHT22;56472;52.114;5.492;2023-04-10T10:42:15;16.70;53.80
69328;DHT22;56472;52.114;5.492;2023-04-10T10:45:05;16.80;53.60
69328;DHT22;56472;52.114;5.492;2023-04-10T10:47:42;16.80;53.70
69328;DHT22;56472;52.114;5.492;2023-04-10T10:50:10;16.90;53.40
69328;DHT22;56472;52.114;5.492;2023-04-10T10:52:46;17.00;53.20
69328;DHT22;56472;52.114;5.492;2023-04-10T10:58:00;17.10;53.40
69328;DHT22;56472;52.114;5.492;2023-04-10T11:05:55;17.40;53.10
69328;DHT22;56472;52.114;5.492;2023-04-10T11:08:43;17.40;53.50
69328;DHT22;56472;52.114;5.492;2023-04-10T11:11:18;17.60;52.80
69328;DHT22;56472;52.114;5.492;2023-04-10T11:16:17;17.80;52.70
69328;DHT22;56472;52.114;5.492;2023-04-10T11:21:32;18.00;51.60
69328;DHT22;56472;52.114;5.492;2023-04-10T11:31:53;18.50;50.60
69328;DHT22;56472;52.114;5.492;2023-04-10T11:34:21;18.50;50.20
69328;DHT22;56472;52.114;5.492;2023-04-10T11:36:47;18.60;48.80
69328;DHT22;56472;52.114;5.492;2023-04-10T11:39:15;18.60;49.50
69328;DHT22;56472;52.114;5.492;2023-04-10T11:41:48;18.60;48.70
69328;DHT22;56472;52.114;5.492;2023-04-10T11:46:44;18.60;48.90
69328;DHT22;56472;52.114;5.492;2023-04-10T11:49:21;18.70;49.50
69328;DHT22;56472;52.114;5.492;2023-04-10T11:51:49;18.70;49.00
69328;DHT22;56472;52.114;5.492;2023-04-10T11:54:21;18.70;49.70
69328;DHT22;56472;52.114;5.492;2023-04-10T11:57:02;18.70;49.70
69328;DHT22;56472;52.114;5.492;2023-04-10T11:59:30;18.80;48.90
69328;DHT22;56472;52.114;5.492;2023-04-10T12:02:11;18.80;50.00
69328;DHT22;56472;52.114;5.492;2023-04-10T12:04:42;18.80;49.50
69328;DHT22;56472;52.114;5.492;2023-04-10T12:07:10;18.90;49.20
69328;DHT22;56472;52.114;5.492;2023-04-10T12:09:37;19.00;49.50
69328;DHT22;56472;52.114;5.492;2023-04-10T12:12:05;19.00;49.80
69328;DHT22;56472;52.114;5.492;2023-04-10T12:17:03;19.20;50.60
69328;DHT22;56472;52.114;5.492;2023-04-10T12:19:30;19.20;49.70
69328;DHT22;56472;52.114;5.492;2023-04-10T12:21:59;19.30;49.30
69328;DHT22;56472;52.114;5.492;2023-04-10T12:27:16;19.30;48.10
69328;DHT22;56472;52.114;5.492;2023-04-10T12:29:45;19.30;48.30
69328;DHT22;56472;52.114;5.492;2023-04-10T12:32:12;19.30;48.30
69328;DHT22;56472;52.114;5.492;2023-04-10T12:34:39;19.30;47.80
69328;DHT22;56472;52.114;5.492;2023-04-10T12:37:07;19.30;47.20
69328;DHT22;56472;52.114;5.492;2023-04-10T12:39:35;19.20;46.70
69328;DHT22;56472;52.114;5.492;2023-04-10T12:42:15;19.20;47.40
69328;DHT22;56472;52.114;5.492;2023-04-10T12:44:57;19.10;47.40
69328;DHT22;56472;52.114;5.492;2023-04-10T12:47:28;19.10;48.00
69328;DHT22;56472;52.114;5.492;2023-04-10T12:50:21;19.10;48.10
69328;DHT22;56472;52.114;5.492;2023-04-10T12:53:03;19.00;49.00
69328;DHT22;56472;52.114;5.492;2023-04-10T12:55:32;19.00;48.60
69328;DHT22;56472;52.114;5.492;2023-04-10T12:58:14;19.00;48.00
69328;DHT22;56472;52.114;5.492;2023-04-10T13:00:46;18.90;47.90
69328;DHT22;56472;52.114;5.492;2023-04-10T13:03:14;18.90;48.30
69328;DHT22;56472;52.114;5.492;2023-04-10T13:05:41;18.80;47.70
69328;DHT22;56472;52.114;5.492;2023-04-10T13:08:08;18.80;47.90
69328;DHT22;56472;52.114;5.492;2023-04-10T13:10:35;18.70;47.90
69328;DHT22;56472;52.114;5.492;2023-04-10T13:13:03;18.60;48.30
69328;DHT22;56472;52.114;5.492;2023-04-10T13:15:33;18.60;48.50
69328;DHT22;56472;52.114;5.492;2023-04-10T13:18:03;18.60;48.60
69328;DHT22;56472;52.114;5.492;2023-04-10T13:20:39;18.50;48.30
69328;DHT22;56472;52.114;5.492;2023-04-10T13:23:07;18.50;48.90
69328;DHT22;56472;52.114;5.492;2023-04-10T13:25:37;18.50;48.70
69328;DHT22;56472;52.114;5.492;2023-04-10T13:28:06;18.40;49.00
69328;DHT22;56472;52.114;5.492;2023-04-10T13:30:40;18.40;48.90
69328;DHT22;56472;52.114;5.492;2023-04-10T13:33:08;18.40;48.90
69328;DHT22;56472;52.114;5.492;2023-04-10T13:35:35;18.30;48.50
69328;DHT22;56472;52.114;5.492;2023-04-10T13:38:02;18.30;48.90
69328;DHT22;56472;52.114;5.492;2023-04-10T13:40:29;18.30;49.50
69328;DHT22;56472;52.114;5.492;2023-04-10T13:42:56;18.30;49.50
69328;DHT22;56472;52.114;5.492;2023-04-10T13:45:23;18.40;49.90
69328;DHT22;56472;52.114;5.492;2023-04-10T13:47:50;18.30;50.00
69328;DHT22;56472;52.114;5.492;2023-04-10T13:50:17;18.30;50.50
69328;DHT22;56472;52.114;5.492;2023-04-10T13:52:44;18.30;50.10
69328;DHT22;56472;52.114;5.492;2023-04-10T13:55:11;18.30;50.60
69328;DHT22;56472;52.114;5.492;2023-04-10T13:57:38;18.30;51.60
69328;DHT22;56472;52.114;5.492;2023-04-10T14:00:06;18.20;52.50
69328;DHT22;56472;52.114;5.492;2023-04-10T14:02:40;18.20;52.90
69328;DHT22;56472;52.114;5.492;2023-04-10T14:05:08;18.20;53.40
69328;DHT22;56472;52.114;5.492;2023-04-10T14:07:35;18.20;54.10
69328;DHT22;56472;52.114;5.492;2023-04-10T14:10:02;18.20;53.20
69328;DHT22;56472;52.114;5.492;2023-04-10T14:12:29;18.20;53.50
69328;DHT22;56472;52.114;5.492;2023-04-10T14:14:56;18.20;53.70
69328;DHT22;56472;52.114;5.492;2023-04-10T14:17:23;18.20;54.00
69328;DHT22;56472;52.114;5.492;2023-04-10T14:19:50;18.20;52.90
69328;DHT22;56472;52.114;5.492;2023-04-10T14:22:19;18.20;53.10
69328;DHT22;56472;52.114;5.492;2023-04-10T14:24:46;18.20;53.40
69328;DHT22;56472;52.114;5.492;2023-04-10T14:27:13;18.20;53.80
69328;DHT22;56472;52.114;5.492;2023-04-10T14:29:40;18.10;54.60
69328;DHT22;56472;52.114;5.492;2023-04-10T14:32:19;18.10;54.50
69328;DHT22;56472;52.114;5.492;2023-04-10T14:34:46;18.10;56.10
69328;DHT22;56472;52.114;5.492;2023-04-10T14:37:13;18.00;56.20
69328;DHT22;56472;52.114;5.492;2023-04-10T14:39:41;18.00;57.30
69328;DHT22;56472;52.114;5.492;2023-04-10T14:42:08;17.90;58.00
69328;DHT22;56472;52.114;5.492;2023-04-10T14:44:36;17.80;58.30
69328;DHT22;56472;52.114;5.492;2023-04-10T14:47:03;17.70;58.40
69328;DHT22;56472;52.114;5.492;2023-04-10T14:49:32;17.60;59.70
69328;DHT22;56472;52.114;5.492;2023-04-10T14:51:59;17.50;60.60
69328;DHT22;56472;52.114;5.492;2023-04-10T14:54:26;17.40;61.10
69328;DHT22;56472;52.114;5.492;2023-04-10T14:56:53;17.40;62.40
69328;DHT22;56472;52.114;5.492;2023-04-10T14:59:19;17.30;63.00
69328;DHT22;56472;52.114;5.492;2023-04-10T15:01:46;17.30;63.40
69328;DHT22;56472;52.114;5.492;2023-04-10T15:04:14;17.20;63.80
69328;DHT22;56472;52.114;5.492;2023-04-10T15:06:41;17.20;64.30
69328;DHT22;56472;52.114;5.492;2023-04-10T15:09:07;17.10;64.50
69328;DHT22;56472;52.114;5.492;2023-04-10T15:11:34;17.10;64.80
69328;DHT22;56472;52.114;5.492;2023-04-10T15:14:01;17.00;65.30
69328;DHT22;56472;52.114;5.492;2023-04-10T15:16:29;17.00;65.20
69328;DHT22;56472;52.114;5.492;2023-04-10T15:18:56;16.90;66.10
69328;DHT22;56472;52.114;5.492;2023-04-10T15:21:23;16.90;66.80
69328;DHT22;56472;52.114;5.492;2023-04-10T15:23:50;16.80;68.10
69328;DHT22;56472;52.114;5.492;2023-04-10T15:26:17;16.80;67.20
69328;DHT22;56472;52.114;5.492;2023-04-10T15:28:44;16.70;67.80
69328;DHT22;56472;52.114;5.492;2023-04-10T15:31:11;16.70;68.50
69328;DHT22;56472;52.114;5.492;2023-04-10T15:33:38;16.60;69.00
69328;DHT22;56472;52.114;5.492;2023-04-10T15:36:06;16.60;69.50
69328;DHT22;56472;52.114;5.492;2023-04-10T15:38:36;16.60;69.80
69328;DHT22;56472;52.114;5.492;2023-04-10T15:41:10;16.50;70.30
69328;DHT22;56472;52.114;5.492;2023-04-10T15:43:38;16.50;70.60
69328;DHT22;56472;52.114;5.492;2023-04-10T15:46:05;16.40;70.60
69328;DHT22;56472;52.114;5.492;2023-04-10T15:48:32;16.40;70.90
69328;DHT22;56472;52.114;5.492;2023-04-10T15:51:03;16.30;71.30
69328;DHT22;56472;52.114;5.492;2023-04-10T15:53:33;16.30;71.70
69328;DHT22;56472;52.114;5.492;2023-04-10T15:56:03;16.20;72.10
69328;DHT22;56472;52.114;5.492;2023-04-10T15:58:32;16.20;72.50
69328;DHT22;56472;52.114;5.492;2023-04-10T16:00:59;16.20;72.50
69328;DHT22;56472;52.114;5.492;2023-04-10T16:03:26;16.20;72.40
69328;DHT22;56472;52.114;5.492;2023-04-10T16:05:56;16.20;72.30
69328;DHT22;56472;52.114;5.492;2023-04-10T16:08:23;16.20;72.40
69328;DHT22;56472;52.114;5.492;2023-04-10T16:10:52;16.10;72.40
69328;DHT22;56472;52.114;5.492;2023-04-10T16:13:19;16.10;72.60
69328;DHT22;56472;52.114;5.492;2023-04-10T16:15:46;16.10;73.00
69328;DHT22;56472;52.114;5.492;2023-04-10T16:18:13;16.10;73.40
69328;DHT22;56472;52.114;5.492;2023-04-10T16:20:40;16.10;73.50
69328;DHT22;56472;52.114;5.492;2023-04-10T16:23:07;16.10;73.80
69328;DHT22;56472;52.114;5.492;2023-04-10T16:25:34;16.10;74.10
69328;DHT22;56472;52.114;5.492;2023-04-10T16:28:01;16.10;74.50
69328;DHT22;56472;52.114;5.492;2023-04-10T16:30:28;16.00;74.50
69328;DHT22;56472;52.114;5.492;2023-04-10T16:32:55;16.00;75.00
69328;DHT22;56472;52.114;5.492;2023-04-10T16:35:22;16.00;75.20
69328;DHT22;56472;52.114;5.492;2023-04-10T16:37:49;16.00;75.50
69328;DHT22;56472;52.114;5.492;2023-04-10T16:40:16;15.90;75.90
69328;DHT22;56472;52.114;5.492;2023-04-10T16:42:43;15.90;76.30
69328;DHT22;56472;52.114;5.492;2023-04-10T16:45:10;15.90;76.80